PDT,Max TemperatureF,Mean TemperatureF,Min TemperatureF,Max Dew PointF,MeanDew PointF,Min DewpointF,Max Humidity, Mean Humidity, Min Humidity, Max Sea Level PressureIn, Mean Sea Level PressureIn, Min Sea Level PressureIn, Max VisibilityMiles, Mean VisibilityMiles, Min VisibilityMiles, Max Wind SpeedMPH, Mean Wind SpeedMPH, Max Gust SpeedMPH,PrecipitationIn, CloudCover, Events, WindDirDegrees
2013-8-1,69,62,55,54,53,51,93,78,63,30.10,30.07,30.06,10,10,9,15,8,22,0.00,8,,229
2013-8-2,66,60,53,59,55,52,93,80,67,30.14,30.11,30.09,10,10,5,13,6,16,0.01,7,Rain,214
2013-8-3,74,65,55,57,56,55,100,77,53,30.14,30.11,30.06,10,10,5,13,5,18,0.00,6,,19
2013-8-4,83,68,53,59,56,52,100,72,43,30.07,30.02,29.94,10,9,1,14,5,18,0.00,0,,20
2013-8-5,86,69,52,59,55,45,100,64,28,30.04,30.00,29.94,10,7,0,13,3,18,0.00,3,Fog,196
2013-8-6,87,68,49,57,51,41,100,62,23,30.03,29.99,29.92,10,8,0,13,4,15,0.00,2,Fog,207
2013-8-7,86,69,51,58,54,50,100,66,32,30.05,30.01,29.96,10,6,0,9,5,15,0.00,3,Fog,206
2013-8-8,82,68,54,60,56,53,93,69,45,30.06,30.01,29.95,10,10,10,12,4,15,0.00,3,,238
2013-8-9,80,66,51,60,55,51,100,70,39,29.97,29.93,29.86,10,8,0,16,4,19,0.04,2,Fog-Thunderstorm,205
2013-8-10,79,67,55,60,56,51,100,71,42,30.04,29.98,29.90,10,10,6,14,6,19,0.04,5,Rain-Thunderstorm,212
2013-8-11,76,65,54,56,53,51,93,73,53,30.08,30.05,30.01,10,10,10,13,6,17,0.00,4,,200
2013-8-12,76,67,57,54,52,52,80,63,46,30.09,30.06,30.03,10,10,10,13,3,17,0.00,5,,217
2013-8-13,83,66,49,53,51,48,96,64,31,30.12,30.05,29.94,10,9,0,9,3,13,0.00,1,Fog,41
2013-8-14,81,67,52,61,56,51,93,65,36,29.98,29.96,29.93,10,10,5,13,5,17,0.09,3,Rain,242
2013-8-15,69,65,60,65,62,60,100,91,81,30.00,29.97,29.94,10,6,0,6,1,8,0.10,7,Fog-Rain,106
2013-8-16,83,72,60,63,60,55,100,71,42,30.04,30.00,29.96,10,7,0,14,4,18,0.00,5,Fog,234
2013-8-17,76,67,57,59,57,54,93,73,53,30.10,30.07,30.04,10,10,10,14,7,18,0.00,6,,225
2013-8-18,76,63,50,58,54,50,100,75,49,30.14,30.12,30.08,10,8,0,15,5,18,0.00,3,Fog,232
2013-8-19,77,65,52,57,54,51,100,73,46,30.13,30.10,30.07,10,9,1,14,5,22,0.00,3,,226
2013-8-20,78,64,49,53,49,44,100,67,33,30.17,30.13,30.07,10,9,1,15,5,21,0.00,2,,21
2013-8-21,82,64,45,51,47,43,93,63,33,30.09,30.03,29.94,10,10,10,16,5,22,0.00,0,,38
2013-8-22,84,67,49,56,52,48,93,63,33,29.95,29.89,29.83,10,10,10,12,5,14,0.00,0,,300
2013-8-23,74,67,60,57,55,53,90,72,53,29.92,29.90,29.87,10,10,10,15,8,20,0.00,5,,231
2013-8-24,73,63,52,58,54,48,93,70,47,29.94,29.91,29.87,10,9,4,12,3,14,0.01,6,Rain,219
2013-8-25,71,59,46,56,50,45,100,77,53,29.96,29.93,29.89,10,5,0,9,2,11,T,4,Fog,184
2013-8-26,76,67,58,60,55,48,93,66,38,29.96,29.91,29.88,10,10,6,23,5,29,0.06,8,Rain,212
2013-8-27,79,70,60,63,59,57,90,69,48,29.96,29.88,29.81,10,10,10,10,4,13,0.03,7,Rain,270
2013-8-28,79,71,62,64,61,59,100,77,54,29.92,29.87,29.85,10,10,6,8,3,11,0.13,7,Rain,92
2013-8-29,74,69,63,66,63,60,93,85,76,30.05,29.92,29.86,10,8,0,22,5,29,1.33,7,Fog-Rain-Thunderstorm,210
2013-8-30,77,66,55,61,56,52,100,72,43,30.15,30.11,30.06,10,9,0,13,5,17,0.00,4,Fog,250
2013-8-31,82,66,49,59,54,48,100,70,40,30.09,29.97,29.84,10,10,2,13,4,16,0.00,1,,38